createdAt,value
2023-03-17T00:01:54.122Z,1.33
2023-03-17T00:04:24.354Z,1.50
2023-03-17T00:06:53.108Z,1.75
2023-03-17T00:09:21.326Z,1.38
2023-03-17T00:11:49.187Z,1.10
2023-03-17T00:14:16.889Z,1.27
2023-03-17T00:16:48.614Z,1.20
2023-03-17T00:19:31.125Z,1.30
2023-03-17T00:22:00.100Z,1.30
2023-03-17T00:24:28.596Z,1.65
2023-03-17T00:26:56.024Z,1.30
2023-03-17T00:29:23.969Z,1.27
2023-03-17T00:31:51.339Z,0.80
2023-03-17T00:34:23.490Z,1.73
2023-03-17T00:36:51.365Z,1.00
2023-03-17T00:39:19.054Z,1.35
2023-03-17T00:44:12.925Z,0.82
2023-03-17T00:46:41.640Z,1.00
2023-03-17T00:51:44.876Z,1.10
2023-03-17T00:54:13.796Z,1.00
2023-03-17T00:56:42.478Z,0.85
2023-03-17T00:59:20.946Z,0.95
2023-03-17T01:01:49.192Z,1.63
2023-03-17T01:04:16.570Z,1.00
2023-03-17T01:06:43.769Z,0.77
2023-03-17T01:09:16.636Z,0.95
2023-03-17T01:11:44.447Z,0.93
2023-03-17T01:14:13.089Z,1.05
2023-03-17T01:16:40.935Z,1.27
2023-03-17T01:19:09.393Z,0.80
2023-03-17T01:21:37.045Z,1.00
2023-03-17T01:24:04.767Z,0.70
2023-03-17T01:26:32.230Z,0.93
2023-03-17T01:29:00.117Z,1.13
2023-03-17T01:31:27.483Z,0.75
2023-03-17T01:33:54.760Z,1.10
2023-03-17T01:36:22.867Z,1.17
2023-03-17T01:38:51.039Z,1.55
2023-03-17T01:41:19.196Z,1.65
2023-03-17T01:43:46.661Z,1.20
2023-03-17T01:46:25.416Z,1.13
2023-03-17T01:49:17.628Z,1.17
2023-03-17T01:52:11.813Z,1.85
2023-03-17T01:54:48.322Z,0.90
2023-03-17T01:57:41.168Z,0.70
2023-03-17T02:00:18.033Z,1.02
2023-03-17T02:02:56.273Z,0.95
2023-03-17T02:05:27.162Z,0.73
2023-03-17T02:07:55.646Z,0.57
2023-03-17T02:10:30.333Z,2.00
2023-03-17T02:13:03.679Z,0.70
2023-03-17T02:15:44.802Z,0.77
2023-03-17T02:18:13.081Z,0.80
2023-03-17T02:20:40.374Z,1.13
2023-03-17T02:23:10.785Z,1.00
2023-03-17T02:25:41.165Z,1.20
2023-03-17T02:28:16.264Z,1.70
2023-03-17T02:30:44.928Z,0.90
2023-03-17T02:33:12.393Z,0.70
2023-03-17T02:35:41.549Z,0.90
2023-03-17T02:38:08.828Z,1.60
2023-03-17T02:40:36.111Z,1.00
2023-03-17T02:43:05.216Z,0.95
2023-03-17T02:45:32.458Z,1.80
2023-03-17T02:48:00.333Z,1.20
2023-03-17T02:50:29.207Z,1.10
2023-03-17T02:52:57.097Z,1.10
2023-03-17T02:55:24.420Z,0.80
2023-03-17T02:57:51.641Z,1.33
2023-03-17T03:00:19.725Z,1.27
2023-03-17T03:02:47.123Z,1.58
2023-03-17T03:05:14.375Z,1.70
2023-03-17T03:07:41.562Z,0.95
2023-03-17T03:10:09.957Z,1.10
2023-03-17T03:12:37.182Z,0.90
2023-03-17T03:15:05.370Z,1.15
2023-03-17T03:17:32.866Z,1.02
2023-03-17T03:20:00.153Z,1.17
2023-03-17T03:22:27.405Z,1.10
2023-03-17T03:24:54.609Z,0.98
2023-03-17T03:27:22.232Z,0.98
2023-03-17T03:29:49.502Z,1.10
2023-03-17T03:32:17.150Z,1.10
2023-03-17T03:34:44.328Z,0.90
2023-03-17T03:37:11.718Z,0.90
2023-03-17T03:39:39.212Z,0.82
2023-03-17T03:42:07.235Z,1.10
2023-03-17T03:44:34.521Z,1.48
2023-03-17T03:47:01.892Z,1.20
2023-03-17T03:49:29.148Z,1.98
2023-03-17T03:51:56.454Z,1.33
2023-03-17T03:54:23.985Z,1.80
2023-03-17T03:56:51.234Z,2.33
2023-03-17T03:59:18.699Z,2.03
2023-03-17T04:01:46.236Z,2.65
2023-03-17T04:04:13.499Z,2.42
2023-03-17T04:06:40.932Z,2.25
2023-03-17T04:09:09.369Z,1.98
2023-03-17T04:11:36.861Z,1.98
2023-03-17T04:14:04.269Z,2.17
2023-03-17T04:16:32.051Z,2.40
2023-03-17T04:18:59.393Z,2.78
2023-03-17T04:21:26.639Z,2.90
2023-03-17T04:23:53.806Z,2.55
2023-03-17T04:26:23.148Z,2.25
2023-03-17T04:28:50.327Z,2.67
2023-03-17T04:31:17.591Z,2.33
2023-03-17T04:33:45.016Z,2.35
2023-03-17T04:36:30.398Z,2.20
2023-03-17T04:38:57.533Z,2.33
2023-03-17T04:41:24.749Z,2.35
2023-03-17T04:43:52.182Z,2.40
2023-03-17T04:46:19.518Z,3.08
2023-03-17T04:48:46.993Z,1.67
2023-03-17T04:51:14.232Z,2.08
2023-03-17T04:53:41.403Z,1.90
2023-03-17T04:56:09.002Z,2.03
2023-03-17T04:58:36.361Z,2.17
2023-03-17T05:01:03.947Z,2.03
2023-03-17T05:03:31.840Z,1.30
2023-03-17T05:06:00.583Z,1.40
2023-03-17T05:08:31.099Z,1.98
2023-03-17T05:10:58.845Z,1.40
2023-03-17T05:13:26.791Z,1.25
2023-03-17T05:15:55.436Z,1.17
2023-03-17T05:18:25.065Z,1.23
2023-03-17T05:20:52.784Z,1.23
2023-03-17T05:23:20.742Z,1.35
2023-03-17T05:25:48.398Z,1.42
2023-03-17T05:28:15.898Z,1.38
2023-03-17T05:30:43.862Z,1.48
2023-03-17T05:33:11.020Z,1.35
2023-03-17T05:35:39.143Z,1.20
2023-03-17T05:38:06.995Z,1.95
2023-03-17T05:40:34.732Z,1.65
2023-03-17T05:43:02.181Z,1.77
2023-03-17T05:45:30.248Z,1.80
2023-03-17T05:47:58.112Z,1.45
2023-03-17T05:50:27.118Z,2.28
2023-03-17T05:52:54.437Z,1.85
2023-03-17T05:55:22.990Z,1.75
2023-03-17T05:57:50.421Z,2.35
2023-03-17T06:00:18.967Z,1.88
2023-03-17T06:02:46.338Z,2.10
2023-03-17T06:05:13.827Z,3.00
2023-03-17T06:07:53.033Z,3.00
2023-03-17T06:10:23.706Z,3.03
2023-03-17T06:12:51.522Z,2.53
2023-03-17T06:15:19.601Z,3.72
2023-03-17T06:17:47.234Z,2.70
2023-03-17T06:20:14.856Z,2.53
2023-03-17T06:23:00.356Z,3.10
2023-03-17T06:25:30.365Z,3.00
2023-03-17T06:27:57.918Z,3.88
2023-03-17T06:30:25.337Z,3.72
2023-03-17T06:32:52.580Z,3.45
2023-03-17T06:35:19.924Z,3.88
2023-03-17T06:37:47.932Z,3.72
2023-03-17T06:40:16.304Z,3.97
2023-03-17T06:42:43.652Z,4.18
2023-03-17T06:45:12.180Z,3.10
2023-03-17T06:47:39.891Z,4.18
2023-03-17T06:50:09.913Z,3.95
2023-03-17T06:52:38.385Z,4.28
2023-03-17T06:55:06.342Z,4.28
2023-03-17T06:57:33.530Z,3.63
2023-03-17T07:00:01.208Z,4.03
2023-03-17T07:02:28.521Z,3.28
2023-03-17T07:04:58.277Z,3.38
2023-03-17T07:07:25.622Z,3.95
2023-03-17T07:09:52.977Z,4.97
2023-03-17T07:12:20.861Z,5.80
2023-03-17T07:14:48.149Z,5.10
2023-03-17T07:17:19.721Z,4.25
2023-03-17T07:19:47.167Z,3.78
2023-03-17T07:22:14.456Z,4.20
2023-03-17T07:24:43.354Z,4.72
2023-03-17T07:27:11.129Z,4.43
2023-03-17T07:29:39.133Z,5.05
2023-03-17T07:32:08.233Z,5.35
2023-03-17T07:34:36.065Z,5.15
2023-03-17T07:37:04.222Z,4.53
2023-03-17T07:39:31.487Z,4.63
2023-03-17T07:41:58.796Z,6.03
2023-03-17T07:44:26.156Z,4.40
2023-03-17T07:46:53.419Z,5.30
2023-03-17T07:49:38.174Z,5.25
2023-03-17T07:52:08.932Z,5.55
2023-03-17T07:54:37.808Z,3.83
2023-03-17T07:57:06.516Z,4.85
2023-03-17T07:59:34.092Z,4.50
2023-03-17T08:02:01.749Z,5.55
2023-03-17T08:04:29.360Z,4.60
2023-03-17T08:06:57.581Z,4.63
2023-03-17T08:09:25.109Z,3.70
2023-03-17T08:11:52.674Z,3.13
2023-03-17T08:14:19.986Z,4.05
2023-03-17T08:16:47.440Z,4.22
2023-03-17T08:19:14.747Z,3.25
2023-03-17T08:21:42.235Z,3.67
2023-03-17T08:24:09.973Z,3.13
2023-03-17T08:26:37.749Z,2.38
2023-03-17T08:29:05.217Z,2.03
2023-03-17T08:31:34.058Z,2.13
2023-03-17T08:34:02.890Z,1.35
2023-03-17T08:36:30.298Z,1.65
2023-03-17T08:38:57.609Z,1.40
2023-03-17T08:41:27.024Z,1.25
2023-03-17T08:43:55.086Z,1.30
2023-03-17T08:46:27.248Z,1.63
2023-03-17T08:48:56.858Z,1.55
2023-03-17T08:51:26.840Z,1.48
2023-03-17T08:53:55.058Z,1.33
2023-03-17T08:56:22.885Z,1.08
2023-03-17T08:58:51.727Z,1.00
2023-03-17T09:01:21.088Z,1.00
2023-03-17T09:03:48.769Z,1.10
2023-03-17T09:06:16.540Z,0.80
2023-03-17T09:08:45.124Z,1.10
2023-03-17T09:11:16.782Z,1.35
2023-03-17T09:13:44.863Z,1.13
2023-03-17T09:16:13.242Z,1.38
2023-03-17T09:18:41.265Z,0.80
2023-03-17T09:21:09.854Z,1.00
2023-03-17T09:23:37.071Z,0.85
2023-03-17T09:26:04.360Z,0.70
2023-03-17T09:28:31.984Z,0.60
2023-03-17T09:31:05.398Z,0.60
2023-03-17T09:33:32.824Z,1.38
2023-03-17T09:36:00.143Z,0.60
2023-03-17T09:38:28.138Z,0.80
2023-03-17T09:41:06.808Z,0.80
2023-03-17T09:43:39.869Z,0.60
2023-03-17T09:46:40.191Z,0.80
2023-03-17T09:49:20.678Z,0.63
2023-03-17T09:51:49.540Z,0.68
2023-03-17T09:54:32.632Z,0.80
2023-03-17T09:57:10.170Z,0.55
2023-03-17T09:59:47.162Z,0.80
2023-03-17T10:02:32.762Z,0.80
2023-03-17T10:05:22.887Z,0.80
2023-03-17T10:08:33.970Z,0.90
2023-03-17T10:11:13.470Z,0.80
2023-03-17T10:14:14.492Z,0.60
2023-03-17T10:17:07.198Z,0.60
2023-03-17T10:19:55.601Z,0.70
2023-03-17T10:22:52.029Z,0.50
2023-03-17T10:25:22.062Z,0.40
2023-03-17T10:27:57.554Z,0.40
2023-03-17T10:30:26.018Z,0.45
2023-03-17T10:32:57.504Z,0.60
2023-03-17T10:35:25.466Z,0.50
2023-03-17T10:38:04.326Z,0.40
2023-03-17T10:40:39.752Z,0.43
2023-03-17T10:43:08.774Z,0.60
2023-03-17T10:45:43.306Z,0.60
2023-03-17T10:48:19.080Z,0.60
2023-03-17T10:50:49.331Z,0.30
2023-03-17T10:53:28.391Z,0.40
2023-03-17T10:56:07.093Z,0.40
2023-03-17T10:58:44.169Z,0.40
2023-03-17T11:01:35.893Z,2.08
2023-03-17T11:04:06.615Z,1.10
2023-03-17T11:06:42.230Z,0.82
2023-03-17T11:09:16.776Z,0.40
2023-03-17T11:12:04.504Z,0.40
2023-03-17T11:14:32.154Z,0.50
2023-03-17T11:17:02.548Z,0.88
2023-03-17T11:19:44.281Z,0.57
2023-03-17T11:22:17.673Z,0.70
2023-03-17T11:24:58.544Z,0.60
2023-03-17T11:27:37.273Z,0.68
2023-03-17T11:30:25.649Z,0.75
2023-03-17T11:33:10.764Z,0.63
2023-03-17T11:35:46.924Z,0.60
2023-03-17T11:38:22.330Z,0.60
2023-03-17T11:41:09.063Z,1.08
2023-03-17T11:44:08.882Z,0.82
2023-03-17T11:46:36.265Z,0.60
2023-03-17T11:49:24.694Z,0.63
2023-03-17T11:52:11.295Z,0.73
2023-03-17T11:54:58.829Z,0.50
2023-03-17T11:57:43.091Z,0.50
2023-03-17T12:00:27.722Z,0.95
2023-03-17T12:02:58.658Z,0.60
2023-03-17T12:05:30.080Z,0.80
2023-03-17T12:08:03.646Z,0.60
2023-03-17T12:10:41.600Z,0.80
2023-03-17T12:13:16.738Z,0.65
2023-03-17T12:15:55.674Z,0.57
2023-03-17T12:18:42.300Z,0.50
2023-03-17T12:21:35.557Z,0.90
2023-03-17T12:24:35.091Z,0.90
2023-03-17T12:27:13.454Z,0.80
2023-03-17T12:29:49.906Z,0.73
2023-03-17T12:32:48.529Z,0.90
2023-03-17T12:35:35.001Z,0.60
2023-03-17T12:38:09.214Z,1.27
2023-03-17T12:40:57.661Z,0.80
2023-03-17T12:43:38.483Z,0.70
2023-03-17T12:46:47.466Z,0.57
2023-03-17T12:49:50.013Z,0.60
2023-03-17T12:52:24.700Z,0.70
2023-03-17T12:54:53.781Z,0.60
2023-03-17T12:57:27.522Z,0.60
2023-03-17T13:00:19.309Z,0.80
2023-03-17T13:02:51.371Z,0.70
2023-03-17T13:05:32.684Z,0.50
2023-03-17T13:08:02.448Z,0.40
2023-03-17T13:10:44.271Z,0.68
2023-03-17T13:13:41.381Z,0.50
2023-03-17T13:16:41.332Z,0.63
2023-03-17T13:19:22.584Z,0.40
2023-03-17T13:22:00.752Z,0.60
2023-03-17T13:24:52.717Z,0.70
2023-03-17T13:27:28.953Z,0.47
2023-03-17T13:29:56.602Z,0.57
2023-03-17T13:32:27.053Z,0.60
2023-03-17T13:35:01.802Z,0.45
2023-03-17T13:37:44.463Z,0.60
2023-03-17T13:40:35.012Z,0.50
2023-03-17T13:43:27.569Z,0.60
2023-03-17T13:46:15.649Z,0.43
2023-03-17T13:48:43.086Z,0.50
2023-03-17T13:51:16.289Z,0.70
2023-03-17T13:53:56.668Z,0.60
2023-03-17T13:56:45.234Z,0.60
2023-03-17T13:59:18.423Z,0.50
2023-03-17T14:01:57.801Z,0.70
2023-03-17T14:04:31.507Z,0.68
2023-03-17T14:07:05.631Z,0.50
2023-03-17T14:09:40.362Z,0.40
2023-03-17T14:12:31.118Z,0.40
2023-03-17T14:15:12.035Z,0.40
2023-03-17T14:17:48.697Z,0.57
2023-03-17T14:20:16.238Z,0.60
2023-03-17T14:22:46.652Z,0.60
2023-03-17T14:25:20.344Z,0.40
2023-03-17T14:27:54.179Z,0.60
2023-03-17T14:30:31.850Z,0.40
2023-03-17T14:33:33.802Z,0.52
2023-03-17T14:36:04.352Z,0.40
2023-03-17T14:38:36.314Z,0.30
2023-03-17T14:41:13.882Z,0.40
2023-03-17T14:43:42.782Z,0.32
2023-03-17T14:46:24.549Z,0.40
2023-03-17T14:48:58.938Z,0.60
2023-03-17T14:51:40.722Z,0.43
2023-03-17T14:54:22.621Z,0.40
2023-03-17T14:56:57.958Z,0.32
2023-03-17T14:59:31.062Z,0.40
2023-03-17T15:02:02.257Z,0.32
2023-03-17T15:04:33.656Z,0.30
2023-03-17T15:07:07.669Z,0.22
2023-03-17T15:09:38.005Z,0.40
2023-03-17T15:12:17.111Z,0.50
2023-03-17T15:14:46.590Z,0.30
2023-03-17T15:17:28.519Z,0.30
2023-03-17T15:19:59.932Z,0.40
2023-03-17T15:22:56.769Z,0.47
2023-03-17T15:25:43.660Z,0.40
2023-03-17T15:28:12.366Z,0.40
2023-03-17T15:30:47.498Z,0.50
2023-03-17T15:33:22.488Z,0.40
2023-03-17T15:38:17.826Z,0.30
2023-03-17T15:40:45.767Z,0.70
2023-03-17T15:43:18.090Z,0.50
2023-03-17T15:45:46.322Z,0.60
2023-03-17T15:48:24.962Z,0.40
2023-03-17T15:50:53.726Z,0.55
2023-03-17T15:53:21.425Z,0.40
2023-03-17T15:55:49.160Z,0.40
2023-03-17T15:58:16.384Z,0.40
2023-03-17T16:00:45.531Z,0.55
2023-03-17T16:03:21.209Z,0.45
2023-03-17T16:05:48.638Z,0.63
2023-03-17T16:08:18.103Z,0.50
2023-03-17T16:10:46.464Z,0.55
2023-03-17T16:13:13.672Z,0.60
2023-03-17T16:15:43.827Z,0.70
2023-03-17T16:18:16.902Z,0.50
2023-03-17T16:20:49.514Z,0.88
2023-03-17T16:23:22.139Z,1.00
2023-03-17T16:25:50.035Z,0.55
2023-03-17T16:28:21.976Z,0.30
2023-03-17T16:30:50.833Z,0.65
2023-03-17T16:33:33.911Z,0.52
2023-03-17T16:36:01.576Z,0.55
2023-03-17T16:38:31.942Z,0.43
2023-03-17T16:41:01.411Z,0.60
2023-03-17T16:43:33.867Z,0.50
2023-03-17T16:46:03.205Z,0.47
2023-03-17T16:48:31.214Z,0.60
2023-03-17T16:50:59.319Z,0.70
2023-03-17T16:53:26.807Z,0.70
2023-03-17T16:55:54.966Z,0.70
2023-03-17T16:58:31.531Z,0.57
2023-03-17T17:01:01.855Z,0.77
2023-03-17T17:03:31.240Z,0.50
2023-03-17T17:05:58.701Z,0.60
2023-03-17T17:08:26.209Z,0.73
2023-03-17T17:10:53.392Z,0.70
2023-03-17T17:13:20.636Z,0.82
2023-03-17T17:15:48.038Z,0.52
2023-03-17T17:18:20.627Z,0.93
2023-03-17T17:20:49.212Z,0.93
2023-03-17T17:23:25.408Z,0.60
2023-03-17T17:25:53.771Z,0.90
2023-03-17T17:28:23.388Z,0.73
2023-03-17T17:30:51.998Z,0.63
2023-03-17T17:33:20.472Z,0.50
2023-03-17T17:35:49.148Z,0.80
2023-03-17T17:38:23.640Z,0.60
2023-03-17T17:40:51.137Z,0.90
2023-03-17T17:43:18.537Z,0.75
2023-03-17T17:45:50.433Z,0.50
2023-03-17T17:48:22.483Z,0.50
2023-03-17T17:50:51.184Z,0.50
2023-03-17T17:53:18.784Z,0.52
2023-03-17T17:55:48.250Z,0.77
2023-03-17T17:58:19.307Z,0.70
2023-03-17T18:00:47.002Z,0.60
2023-03-17T18:03:14.415Z,0.70
2023-03-17T18:05:41.733Z,1.20
2023-03-17T18:08:10.421Z,0.68
2023-03-17T18:10:37.634Z,0.60
2023-03-17T18:13:05.475Z,0.50
2023-03-17T18:15:32.945Z,0.57
2023-03-17T18:18:00.203Z,0.50
2023-03-17T18:20:28.295Z,0.93
2023-03-17T18:22:55.971Z,1.08
2023-03-17T18:25:25.478Z,0.70
2023-03-17T18:27:53.475Z,0.70
2023-03-17T18:30:24.406Z,0.70
2023-03-17T18:32:54.827Z,0.60
2023-03-17T18:35:24.487Z,0.85
2023-03-17T18:37:52.001Z,0.60
2023-03-17T18:40:19.832Z,0.77
2023-03-17T18:42:47.527Z,0.68
2023-03-17T18:45:16.111Z,1.02
2023-03-17T18:47:43.396Z,0.60
2023-03-17T18:50:13.316Z,0.90
2023-03-17T18:52:42.520Z,0.80
2023-03-17T18:55:11.648Z,0.90
2023-03-17T18:57:39.399Z,0.85
2023-03-17T19:00:09.830Z,0.70
2023-03-17T19:02:38.288Z,1.00
2023-03-17T19:05:07.479Z,0.73
2023-03-17T19:07:35.081Z,1.40
2023-03-17T19:10:02.378Z,1.35
2023-03-17T19:12:29.725Z,1.10
2023-03-17T19:14:57.068Z,0.90
2023-03-17T19:17:24.466Z,0.90
2023-03-17T19:19:52.261Z,1.23
2023-03-17T19:22:19.704Z,0.98
2023-03-17T19:24:50.230Z,0.80
2023-03-17T19:27:18.142Z,0.90
2023-03-17T19:29:46.152Z,0.90
2023-03-17T19:32:13.388Z,1.35
2023-03-17T19:34:40.655Z,0.88
2023-03-17T19:37:07.954Z,1.10
2023-03-17T19:39:36.829Z,1.13
2023-03-17T19:42:04.111Z,0.90
2023-03-17T19:44:31.304Z,1.00
2023-03-17T19:46:58.496Z,1.13
2023-03-17T19:49:26.279Z,1.02
2023-03-17T19:51:53.524Z,1.10
2023-03-17T19:54:23.431Z,1.17
2023-03-17T19:56:51.530Z,1.20
2023-03-17T19:59:19.828Z,1.10
2023-03-17T20:01:49.166Z,1.45
2023-03-17T20:04:22.104Z,2.30
2023-03-17T20:06:55.212Z,2.53
2023-03-17T20:09:24.839Z,3.95
2023-03-17T20:11:53.684Z,5.70
2023-03-17T20:14:21.131Z,5.57
2023-03-17T20:16:48.674Z,5.90
2023-03-17T20:19:16.819Z,5.15
2023-03-17T20:21:44.158Z,3.58
2023-03-17T20:24:14.774Z,3.88
2023-03-17T20:26:43.497Z,2.85
2023-03-17T20:29:14.502Z,2.95
2023-03-17T20:31:42.207Z,2.85
2023-03-17T20:34:10.252Z,3.38
2023-03-17T20:36:37.624Z,3.53
2023-03-17T20:39:05.939Z,4.00
2023-03-17T20:41:33.210Z,2.55
2023-03-17T20:44:00.961Z,2.88
2023-03-17T20:46:28.187Z,3.03
2023-03-17T20:49:01.195Z,2.60
2023-03-17T20:51:28.393Z,2.53
2023-03-17T20:53:56.941Z,2.95
2023-03-17T20:56:26.639Z,3.60
2023-03-17T20:58:54.334Z,4.97
2023-03-17T21:01:22.005Z,5.70
2023-03-17T21:03:50.257Z,5.32
2023-03-17T21:06:18.497Z,4.40
2023-03-17T21:08:46.322Z,5.22
2023-03-17T21:11:17.371Z,3.90
2023-03-17T21:13:45.089Z,4.30
2023-03-17T21:16:27.841Z,3.08
2023-03-17T21:18:55.297Z,6.18
2023-03-17T21:21:23.016Z,5.38
2023-03-17T21:23:51.126Z,5.20
2023-03-17T21:26:18.528Z,5.00
2023-03-17T21:28:46.555Z,6.00
2023-03-17T21:31:15.999Z,5.10
2023-03-17T21:33:44.039Z,5.03
2023-03-17T21:36:11.315Z,4.45
2023-03-17T21:38:38.993Z,4.43
2023-03-17T21:41:32.253Z,4.10
2023-03-17T21:44:00.430Z,4.22
2023-03-17T21:46:27.760Z,3.67
2023-03-17T21:48:56.086Z,4.13
2023-03-17T21:51:23.756Z,3.80
2023-03-17T21:53:51.524Z,3.63
2023-03-17T21:56:20.568Z,2.45
2023-03-17T21:58:49.166Z,4.10
2023-03-17T22:01:18.400Z,3.30
2023-03-17T22:03:48.118Z,4.20
2023-03-17T22:06:16.367Z,2.85
2023-03-17T22:08:44.420Z,2.72
2023-03-17T22:11:15.019Z,2.88
2023-03-17T22:13:42.984Z,2.55
2023-03-17T22:16:11.741Z,3.17
2023-03-17T22:18:39.603Z,2.65
2023-03-17T22:21:08.351Z,2.75
2023-03-17T22:23:41.182Z,3.85
2023-03-17T22:26:13.397Z,3.35
2023-03-17T22:28:41.557Z,2.35
2023-03-17T22:31:17.990Z,2.90
2023-03-17T22:33:46.038Z,2.58
2023-03-17T22:36:13.291Z,3.13
2023-03-17T22:38:40.649Z,2.83
2023-03-17T22:41:11.604Z,2.88
2023-03-17T22:43:40.104Z,2.38
2023-03-17T22:46:07.577Z,2.08
2023-03-17T22:48:38.134Z,2.30
2023-03-17T22:51:08.139Z,2.20
2023-03-17T22:53:36.546Z,2.70
2023-03-17T22:56:05.537Z,2.22
2023-03-17T22:58:33.263Z,1.92
2023-03-17T23:01:00.646Z,1.45
2023-03-17T23:03:28.816Z,1.70
2023-03-17T23:05:58.432Z,2.08
2023-03-17T23:08:27.997Z,2.22
2023-03-17T23:10:56.827Z,1.52
2023-03-17T23:13:24.288Z,1.65
2023-03-17T23:15:51.836Z,1.40
2023-03-17T23:18:19.417Z,1.45
2023-03-17T23:20:46.684Z,1.23
2023-03-17T23:23:14.194Z,1.90
2023-03-17T23:25:41.356Z,1.35
2023-03-17T23:28:09.799Z,1.25
2023-03-17T23:30:37.451Z,1.25
2023-03-17T23:33:05.361Z,1.52
2023-03-17T23:35:33.425Z,1.35
2023-03-17T23:38:01.253Z,1.30
2023-03-17T23:40:28.973Z,1.65
2023-03-17T23:42:56.404Z,1.30
2023-03-17T23:45:24.060Z,1.33
2023-03-17T23:47:52.338Z,1.30
2023-03-17T23:50:21.736Z,1.15
2023-03-17T23:52:49.381Z,1.35
2023-03-17T23:55:16.976Z,1.30
2023-03-17T23:57:44.386Z,1.52
